createdAt,value
2018-12-21T08:30:17.635Z,992.95
2018-12-21T08:31:17.621Z,993.05
2018-12-21T08:32:17.623Z,993.04
2018-12-21T08:33:17.610Z,993.00
2018-12-21T08:34:17.583Z,992.91
2018-12-21T08:35:17.564Z,992.93
2018-12-21T08:36:17.594Z,992.92
2018-12-21T08:37:17.551Z,992.93
2018-12-21T08:38:17.529Z,992.85
2018-12-21T08:39:17.784Z,992.82
2018-12-21T08:40:17.517Z,992.84
2018-12-21T08:41:17.500Z,992.82
2018-12-21T08:42:17.490Z,992.88
2018-12-21T08:43:18.226Z,992.90
2018-12-21T08:44:17.466Z,992.78
2018-12-21T08:45:17.964Z,992.79
2018-12-21T08:46:17.439Z,992.76
2018-12-21T08:47:17.510Z,992.72
2018-12-21T08:48:17.477Z,992.68
2018-12-21T08:49:18.651Z,992.72
2018-12-21T08:50:17.658Z,992.76
2018-12-21T08:51:17.390Z,992.62
2018-12-21T08:52:17.385Z,992.63
2018-12-21T08:53:17.451Z,992.51
2018-12-21T08:54:17.619Z,992.56
2018-12-21T08:55:17.399Z,992.62
2018-12-21T08:56:17.335Z,992.40
2018-12-21T08:57:17.321Z,992.48
2018-12-21T08:58:17.336Z,992.45
2018-12-21T08:59:17.369Z,992.41
2018-12-21T09:00:17.292Z,992.45
2018-12-21T09:01:17.278Z,992.42
2018-12-21T09:02:17.265Z,992.46
2018-12-21T09:03:17.253Z,992.50
2018-12-21T09:04:17.496Z,992.51
2018-12-21T09:05:18.050Z,992.37
2018-12-21T09:06:18.569Z,992.48
2018-12-21T09:07:17.260Z,992.41
2018-12-21T09:08:17.201Z,992.36
2018-12-21T09:09:17.247Z,992.39
2018-12-21T09:10:17.172Z,992.31
2018-12-21T09:11:18.305Z,992.33
2018-12-21T09:12:17.193Z,992.30
2018-12-21T09:13:17.253Z,992.32
2018-12-21T09:14:17.130Z,992.37
2018-12-21T09:15:17.131Z,992.33
2018-12-21T09:16:17.122Z,992.29
2018-12-21T09:17:17.151Z,992.29
2018-12-21T09:18:17.354Z,992.36
2018-12-21T09:19:17.374Z,992.27
2018-12-21T09:24:17.012Z,992.15
2018-12-21T09:25:17.027Z,992.15
2018-12-21T09:26:17.005Z,992.06
2018-12-21T09:27:17.006Z,991.98
2018-12-21T09:28:16.967Z,991.92
2018-12-21T09:29:16.968Z,991.95
2018-12-21T09:31:17.027Z,991.83
2018-12-21T09:32:16.927Z,991.81
2018-12-21T09:33:16.913Z,991.75
2018-12-21T09:34:18.153Z,991.74
2018-12-21T09:35:16.922Z,991.77
2018-12-21T09:36:16.900Z,991.70
2018-12-21T09:37:16.868Z,991.71
2018-12-21T09:39:16.972Z,991.70
2018-12-21T09:40:16.852Z,991.61
2018-12-21T09:41:16.846Z,991.69
2018-12-21T09:42:16.814Z,991.65
2018-12-21T09:43:16.953Z,991.67
2018-12-21T09:44:16.792Z,991.65
2018-12-21T09:45:17.222Z,991.70
2018-12-21T09:46:16.773Z,991.72
2018-12-21T09:47:16.847Z,991.60
2018-12-21T09:48:16.792Z,991.63
2018-12-21T09:49:16.746Z,991.64
2018-12-21T09:50:16.972Z,991.66
2018-12-21T09:51:18.958Z,991.68
2018-12-21T09:52:16.735Z,991.72
2018-12-21T09:53:16.692Z,991.61
2018-12-21T09:55:16.687Z,991.59
2018-12-21T09:59:16.710Z,991.47
2018-12-21T10:00:18.307Z,991.42
2018-12-21T10:01:38.630Z,991.43
2018-12-21T10:02:38.873Z,991.38
2018-12-21T10:03:38.652Z,991.39
2018-12-21T10:04:38.589Z,991.52
2018-12-21T10:05:38.600Z,991.49
2018-12-21T10:06:38.601Z,991.55
2018-12-21T10:07:38.758Z,991.34
2018-12-21T10:08:38.546Z,991.36
2018-12-21T10:09:39.315Z,991.47
2018-12-21T10:10:39.248Z,991.47
2018-12-21T10:11:38.603Z,991.41
2018-12-21T10:12:38.552Z,991.47
2018-12-21T10:13:38.485Z,991.39
2018-12-21T10:14:38.813Z,991.47
2018-12-21T10:16:38.536Z,991.45
2018-12-21T10:17:38.706Z,991.43
2018-12-21T10:18:38.700Z,991.36
2018-12-21T10:19:38.464Z,991.36
2018-12-21T10:20:38.413Z,991.44
2018-12-21T10:21:38.401Z,991.43
2018-12-21T10:23:38.387Z,991.41
2018-12-21T10:24:38.373Z,991.42
2018-12-21T10:25:38.408Z,991.50
2018-12-21T10:26:43.806Z,991.45
2018-12-21T10:27:38.788Z,991.45
2018-12-21T10:28:38.435Z,991.39
2018-12-21T10:29:38.308Z,991.35
2018-12-21T10:30:38.309Z,991.45
2018-12-21T10:31:38.295Z,991.36
2018-12-21T10:32:38.295Z,991.31
2018-12-21T10:33:38.270Z,991.13
2018-12-21T10:34:38.512Z,991.33
2018-12-21T10:35:38.240Z,991.34
2018-12-21T10:36:38.278Z,991.39
2018-12-21T10:37:38.225Z,991.44
2018-12-21T10:38:38.318Z,991.37
2018-12-21T10:39:38.488Z,991.46
2018-12-21T10:40:38.189Z,991.27
2018-12-21T10:41:38.187Z,991.32
2018-12-21T10:43:38.457Z,991.30
2018-12-21T10:44:38.140Z,991.22
2018-12-21T10:45:41.694Z,991.24
2018-12-21T10:46:38.181Z,991.37
2018-12-21T10:47:38.111Z,991.30
2018-12-21T10:48:38.189Z,991.27
2018-12-21T10:51:38.123Z,991.27
2018-12-21T10:52:38.991Z,991.39
2018-12-21T10:53:39.397Z,991.36
2018-12-21T10:54:38.029Z,991.37
2018-12-21T10:55:38.269Z,991.34
2018-12-21T10:56:38.006Z,991.42
2018-12-21T10:57:38.081Z,991.26
2018-12-21T10:58:37.988Z,991.31
2018-12-21T10:59:43.384Z,991.33
2018-12-21T11:00:37.966Z,991.40
2018-12-21T11:01:39.008Z,991.38
2018-12-21T11:02:37.945Z,991.43
2018-12-21T11:03:38.191Z,991.40
2018-12-21T11:04:37.913Z,991.45
2018-12-21T11:07:37.922Z,991.44
2018-12-21T11:08:37.882Z,991.47
2018-12-21T11:09:37.867Z,991.46
2018-12-21T11:10:37.854Z,991.44
2018-12-21T11:11:37.908Z,991.40
2018-12-21T11:12:37.837Z,991.46
2018-12-21T11:13:37.814Z,991.46
2018-12-21T11:14:38.665Z,991.47
2018-12-21T11:15:37.867Z,991.43
2018-12-21T11:16:37.793Z,991.42
2018-12-21T11:18:37.812Z,991.47
2018-12-21T11:19:37.756Z,991.38
2018-12-21T11:20:37.739Z,991.35
2018-12-21T11:22:37.803Z,991.39
2018-12-21T11:24:37.705Z,991.34
2018-12-21T11:25:37.697Z,991.33
2018-12-21T11:26:37.672Z,991.38
2018-12-21T11:27:37.716Z,991.35
2018-12-21T11:28:37.665Z,991.37
2018-12-21T11:29:37.674Z,991.39
2018-12-21T11:30:37.638Z,991.38
2018-12-21T11:32:37.606Z,991.37
2018-12-21T11:33:37.596Z,991.35
2018-12-21T11:34:37.593Z,991.37
2018-12-21T11:35:37.614Z,991.29
2018-12-21T11:36:37.817Z,991.38
2018-12-21T11:37:37.551Z,991.28
2018-12-21T11:38:37.791Z,991.34
2018-12-21T11:39:37.529Z,991.44
2018-12-21T11:42:37.801Z,991.45
2018-12-21T11:43:37.766Z,991.43
2018-12-21T11:44:37.589Z,991.47
2018-12-21T11:45:37.465Z,991.47
2018-12-21T11:46:37.490Z,991.48
2018-12-21T11:48:37.744Z,991.50
2018-12-21T11:49:37.486Z,991.47
2018-12-21T11:51:37.447Z,991.45
2018-12-21T11:52:37.390Z,991.41
2018-12-21T11:53:37.412Z,991.42
2018-12-21T11:56:59.608Z,991.48
2018-12-21T11:57:59.634Z,991.38
2018-12-21T12:01:00.141Z,991.42
2018-12-21T12:03:59.683Z,991.45
2018-12-21T12:04:59.526Z,991.46
2018-12-21T12:05:59.578Z,991.49
2018-12-21T12:06:59.499Z,991.39
2018-12-21T12:10:21.842Z,991.42
2018-12-21T12:11:21.580Z,991.49
2018-12-21T12:12:21.577Z,991.53
2018-12-21T12:13:21.617Z,991.53
2018-12-21T12:14:21.541Z,991.56
2018-12-21T12:15:21.532Z,991.53
2018-12-21T12:19:21.488Z,991.62
2018-12-21T12:23:21.502Z,991.65
2018-12-21T12:25:21.623Z,991.68
2018-12-21T12:29:21.633Z,991.62
2018-12-21T12:30:21.366Z,991.65
2018-12-21T12:32:21.664Z,991.61
2018-12-21T12:33:21.326Z,991.59
2018-12-21T12:36:21.296Z,991.52
2018-12-21T12:39:21.694Z,991.62
2018-12-21T12:43:21.221Z,991.68
2018-12-21T12:44:21.197Z,991.71
2018-12-21T12:45:21.197Z,991.65
2018-12-21T12:49:21.150Z,991.59
2018-12-21T12:51:21.119Z,991.65
2018-12-21T12:53:21.102Z,991.67
2018-12-21T12:56:24.229Z,991.63
2018-12-21T13:00:21.461Z,991.64
2018-12-21T13:03:20.999Z,991.75
2018-12-21T13:04:20.992Z,991.67
2018-12-21T13:09:20.916Z,991.86
2018-12-21T13:13:20.970Z,991.84
2018-12-21T13:27:20.713Z,992.12
2018-12-21T13:28:20.705Z,992.14
2018-12-21T13:31:21.150Z,992.16
2018-12-21T13:32:20.706Z,992.06
2018-12-21T13:34:23.111Z,991.95
2018-12-21T13:35:20.659Z,992.00
2018-12-21T13:37:20.613Z,992.05
2018-12-21T13:39:24.736Z,992.03
2018-12-21T13:41:20.753Z,992.15
2018-12-21T13:48:20.734Z,992.14
2018-12-21T13:51:20.439Z,992.11
2018-12-21T13:57:20.626Z,992.15
2018-12-21T14:04:20.297Z,992.23
2018-12-21T14:12:20.639Z,992.45
2018-12-21T14:50:41.460Z,992.77
